createdAt,value
2022-11-20T00:01:27.467Z,26.02
2022-11-20T00:03:55.955Z,27.98
2022-11-20T00:06:23.456Z,24.90
2022-11-20T00:08:50.233Z,24.63
2022-11-20T00:11:21.681Z,28.38
2022-11-20T00:13:49.934Z,25.67
2022-11-20T00:16:19.154Z,25.10
2022-11-20T00:18:46.315Z,25.52
2022-11-20T00:21:17.980Z,29.88
2022-11-20T00:23:44.891Z,26.58
2022-11-20T00:26:16.987Z,22.80
2022-11-20T00:28:44.297Z,26.30
2022-11-20T00:31:13.847Z,27.42
2022-11-20T00:33:40.441Z,24.02
2022-11-20T00:36:09.278Z,22.67
2022-11-20T00:38:36.014Z,23.10
2022-11-20T00:41:04.815Z,24.52
2022-11-20T00:43:31.538Z,23.92
2022-11-20T00:46:04.493Z,28.50
2022-11-20T00:48:31.585Z,26.35
2022-11-20T00:50:58.013Z,22.63
2022-11-20T00:53:25.269Z,25.48
2022-11-20T00:56:01.214Z,21.77
2022-11-20T00:58:31.686Z,25.35
2022-11-20T01:01:08.247Z,25.50
2022-11-20T01:03:36.561Z,26.85
2022-11-20T01:06:05.017Z,30.77
2022-11-20T01:08:33.796Z,32.28
2022-11-20T01:11:02.718Z,28.20
2022-11-20T01:13:40.154Z,26.50
2022-11-20T01:16:17.974Z,25.17
2022-11-20T01:18:46.589Z,26.40
2022-11-20T01:21:16.503Z,24.23
2022-11-20T01:23:44.627Z,23.50
2022-11-20T01:26:16.503Z,24.73
2022-11-20T01:28:43.684Z,32.85
2022-11-20T01:31:21.993Z,31.45
2022-11-20T01:33:50.737Z,30.05
2022-11-20T01:36:18.042Z,26.40
2022-11-20T01:38:44.565Z,31.17
2022-11-20T01:41:12.074Z,28.40
2022-11-20T01:43:38.463Z,23.15
2022-11-20T01:46:20.128Z,25.10
2022-11-20T01:48:53.681Z,23.58
2022-11-20T01:51:33.227Z,27.80
2022-11-20T01:54:05.394Z,23.38
2022-11-20T01:56:37.067Z,28.00
2022-11-20T01:59:06.409Z,26.15
2022-11-20T02:01:32.868Z,29.98
2022-11-20T02:04:00.865Z,34.03
2022-11-20T02:06:31.696Z,27.58
2022-11-20T02:08:58.318Z,27.52
2022-11-20T02:11:24.730Z,28.33
2022-11-20T02:13:51.417Z,30.02
2022-11-20T02:16:24.906Z,25.02
2022-11-20T02:18:52.416Z,27.63
2022-11-20T02:21:30.363Z,29.27
2022-11-20T02:24:00.728Z,30.55
2022-11-20T02:26:30.857Z,27.77
2022-11-20T02:28:58.780Z,33.57
2022-11-20T02:31:25.177Z,28.08
2022-11-20T02:33:58.924Z,31.20
2022-11-20T02:36:28.085Z,33.03
2022-11-20T02:38:54.835Z,30.08
2022-11-20T02:41:21.293Z,31.65
2022-11-20T02:43:47.715Z,30.50
2022-11-20T02:46:14.144Z,33.35
2022-11-20T02:48:40.542Z,29.17
2022-11-20T02:51:06.952Z,31.50
2022-11-20T02:53:33.372Z,39.45
2022-11-20T02:55:59.787Z,34.97
2022-11-20T02:58:26.170Z,34.85
2022-11-20T03:00:53.562Z,32.40
2022-11-20T03:03:20.003Z,37.40
2022-11-20T03:05:46.406Z,32.35
2022-11-20T03:08:12.789Z,33.67
2022-11-20T03:10:39.182Z,29.77
2022-11-20T03:13:06.272Z,29.95
2022-11-20T03:15:32.682Z,28.52
2022-11-20T03:17:59.060Z,35.38
2022-11-20T03:20:25.453Z,29.67
2022-11-20T03:22:51.856Z,35.78
2022-11-20T03:25:18.244Z,31.45
2022-11-20T03:27:44.627Z,30.05
2022-11-20T03:30:11.290Z,30.65
2022-11-20T03:32:37.672Z,28.45
2022-11-20T03:35:04.279Z,31.58
2022-11-20T03:37:30.663Z,29.17
2022-11-20T03:39:57.087Z,30.17
2022-11-20T03:42:42.067Z,31.73
2022-11-20T03:45:08.775Z,28.45
2022-11-20T03:47:35.160Z,33.60
2022-11-20T03:50:01.565Z,33.95
2022-11-20T03:52:27.946Z,30.52
2022-11-20T03:54:54.341Z,30.50
2022-11-20T03:57:20.770Z,33.97
2022-11-20T03:59:47.195Z,33.17
2022-11-20T04:02:13.605Z,32.60
2022-11-20T04:04:40.042Z,35.45
2022-11-20T04:07:06.489Z,35.47
2022-11-20T04:09:32.899Z,35.78
2022-11-20T04:11:59.323Z,34.72
2022-11-20T04:14:25.801Z,31.60
2022-11-20T04:16:52.222Z,31.15
2022-11-20T04:19:19.514Z,30.25
2022-11-20T04:21:46.475Z,31.67
2022-11-20T04:24:13.271Z,32.85
2022-11-20T04:26:40.228Z,31.17
2022-11-20T04:29:06.610Z,33.45
2022-11-20T04:31:34.576Z,35.30
2022-11-20T04:34:05.856Z,33.90
2022-11-20T04:36:32.980Z,31.52
2022-11-20T04:39:01.868Z,34.45
2022-11-20T04:41:30.911Z,32.58
2022-11-20T04:44:05.463Z,35.35
2022-11-20T04:46:34.542Z,33.17
2022-11-20T04:49:01.052Z,32.25
2022-11-20T04:51:27.896Z,34.42
2022-11-20T04:53:54.727Z,36.20
2022-11-20T04:56:21.211Z,37.50
2022-11-20T04:58:47.602Z,35.90
2022-11-20T05:01:22.931Z,35.65
2022-11-20T05:03:49.932Z,33.63
2022-11-20T05:06:18.267Z,33.80
2022-11-20T05:08:44.713Z,36.95
2022-11-20T05:11:13.934Z,33.05
2022-11-20T05:13:40.887Z,32.65
2022-11-20T05:16:13.142Z,34.00
2022-11-20T05:18:40.492Z,35.28
2022-11-20T05:21:07.844Z,35.00
2022-11-20T05:23:35.115Z,39.83
2022-11-20T05:26:02.222Z,35.10
2022-11-20T05:28:30.540Z,38.67
2022-11-20T05:30:57.015Z,37.63
2022-11-20T05:33:23.561Z,33.65
2022-11-20T05:35:50.432Z,33.78
2022-11-20T05:38:16.918Z,36.55
2022-11-20T05:40:43.457Z,32.53
2022-11-20T05:43:09.865Z,34.85
2022-11-20T05:45:36.501Z,33.67
2022-11-20T05:48:03.009Z,32.42
2022-11-20T05:50:29.444Z,32.33
2022-11-20T05:52:55.872Z,34.22
2022-11-20T05:55:22.310Z,34.65
2022-11-20T05:57:48.696Z,32.72
2022-11-20T06:00:15.811Z,33.55
2022-11-20T06:02:42.260Z,36.10
2022-11-20T06:05:09.762Z,31.92
2022-11-20T06:07:36.228Z,36.03
2022-11-20T06:10:02.681Z,35.75
2022-11-20T06:12:29.075Z,34.35
2022-11-20T06:14:55.462Z,34.35
2022-11-20T06:17:21.849Z,38.55
2022-11-20T06:19:48.238Z,32.72
2022-11-20T06:22:14.617Z,40.58
2022-11-20T06:24:40.998Z,38.10
2022-11-20T06:27:07.374Z,33.08
2022-11-20T06:29:34.205Z,38.15
2022-11-20T06:32:00.833Z,32.58
2022-11-20T06:34:27.289Z,34.97
2022-11-20T06:36:53.681Z,34.83
2022-11-20T06:39:20.489Z,36.40
2022-11-20T06:41:47.133Z,34.35
2022-11-20T06:44:13.526Z,35.78
2022-11-20T06:46:39.934Z,43.20
2022-11-20T06:49:06.794Z,34.78
2022-11-20T06:51:33.222Z,38.08
2022-11-20T06:54:00.565Z,38.08
2022-11-20T06:56:27.000Z,37.85
2022-11-20T06:58:53.420Z,36.28
2022-11-20T07:01:19.852Z,39.67
2022-11-20T07:03:48.975Z,39.33
2022-11-20T07:06:17.833Z,35.75
2022-11-20T07:08:44.241Z,36.25
2022-11-20T07:11:12.878Z,37.70
2022-11-20T07:13:39.270Z,48.75
2022-11-20T07:16:08.406Z,36.20
2022-11-20T07:18:35.199Z,39.00
2022-11-20T07:21:08.044Z,42.22
2022-11-20T07:23:35.248Z,36.00
2022-11-20T07:26:09.969Z,46.45
2022-11-20T07:28:36.634Z,36.88
2022-11-20T07:31:04.089Z,39.38
2022-11-20T07:33:30.465Z,36.97
2022-11-20T07:35:56.866Z,40.25
2022-11-20T07:38:23.249Z,38.72
2022-11-20T07:40:49.924Z,45.40
2022-11-20T07:43:16.341Z,36.95
2022-11-20T07:45:42.753Z,42.47
2022-11-20T07:48:09.141Z,35.50
2022-11-20T07:50:35.532Z,36.78
2022-11-20T07:53:06.200Z,36.53
2022-11-20T07:55:33.408Z,35.72
2022-11-20T07:58:00.580Z,35.85
2022-11-20T08:00:27.303Z,41.80
2022-11-20T08:02:53.761Z,38.13
2022-11-20T08:05:20.139Z,41.17
2022-11-20T08:07:46.837Z,35.20
2022-11-20T08:10:15.164Z,36.00
2022-11-20T08:13:05.412Z,35.03
2022-11-20T08:15:32.781Z,39.78
2022-11-20T08:18:29.950Z,38.88
2022-11-20T08:20:52.136Z,38.00
2022-11-20T08:23:18.531Z,35.47
2022-11-20T08:25:49.849Z,35.40
2022-11-20T08:28:21.393Z,44.83
2022-11-20T08:30:48.628Z,34.95
2022-11-20T08:33:15.272Z,34.53
2022-11-20T08:35:42.570Z,39.33
2022-11-20T08:38:10.300Z,40.42
2022-11-20T08:40:36.763Z,38.63
2022-11-20T08:43:03.145Z,40.42
2022-11-20T08:45:34.170Z,38.95
2022-11-20T08:48:04.809Z,37.30
2022-11-20T08:50:33.131Z,38.55
2022-11-20T08:53:06.637Z,39.80
2022-11-20T08:55:33.195Z,37.20
2022-11-20T08:58:03.681Z,40.58
2022-11-20T09:00:30.082Z,34.58
2022-11-20T09:02:56.510Z,34.47
2022-11-20T09:05:22.896Z,31.00
2022-11-20T09:07:49.290Z,38.47
2022-11-20T09:10:25.519Z,34.90
2022-11-20T09:12:53.134Z,35.13
2022-11-20T09:15:20.087Z,33.67
2022-11-20T09:18:01.339Z,31.92
2022-11-20T09:22:56.857Z,33.63
2022-11-20T09:25:23.285Z,31.33
2022-11-20T09:27:56.049Z,36.38
2022-11-20T09:30:22.447Z,34.13
2022-11-20T09:32:48.856Z,30.58
2022-11-20T09:35:15.627Z,30.30
2022-11-20T09:37:42.140Z,35.08
2022-11-20T09:40:20.732Z,31.23
2022-11-20T09:43:16.392Z,31.88
2022-11-20T09:46:00.156Z,31.75
2022-11-20T09:48:44.141Z,34.30
2022-11-20T09:51:13.308Z,33.15
2022-11-20T09:54:10.441Z,28.95
2022-11-20T09:56:43.820Z,33.30
2022-11-20T09:59:24.744Z,35.03
2022-11-20T10:01:51.395Z,32.33
2022-11-20T10:04:20.590Z,32.55
2022-11-20T10:07:30.672Z,28.20
2022-11-20T10:09:55.758Z,27.48
2022-11-20T10:12:37.697Z,21.27
2022-11-20T10:15:13.986Z,29.92
2022-11-20T10:18:06.596Z,28.25
2022-11-20T10:20:57.433Z,30.42
2022-11-20T10:23:45.829Z,29.17
2022-11-20T10:26:24.499Z,32.70
2022-11-20T10:29:09.881Z,27.75
2022-11-20T10:31:42.405Z,27.33
2022-11-20T10:34:27.855Z,26.50
2022-11-20T10:37:04.548Z,24.60
2022-11-20T10:39:52.183Z,29.98
2022-11-20T10:42:28.920Z,28.40
2022-11-20T10:45:06.368Z,26.38
2022-11-20T10:47:33.826Z,27.20
2022-11-20T10:50:05.748Z,22.58
2022-11-20T10:52:44.436Z,26.13
2022-11-20T10:55:35.768Z,29.40
2022-11-20T11:00:32.414Z,24.67
2022-11-20T11:03:03.826Z,20.98
2022-11-20T11:05:44.029Z,22.70
2022-11-20T11:08:17.558Z,26.35
2022-11-20T11:10:58.378Z,22.52
2022-11-20T11:13:27.161Z,26.50
2022-11-20T11:15:54.412Z,24.33
2022-11-20T11:18:29.327Z,21.85
2022-11-20T11:20:57.083Z,24.52
2022-11-20T11:23:40.775Z,25.00
2022-11-20T11:26:19.671Z,25.13
2022-11-20T11:28:59.561Z,26.60
2022-11-20T11:31:27.658Z,23.25
2022-11-20T11:34:07.850Z,22.83
2022-11-20T11:36:36.306Z,23.63
2022-11-20T11:39:05.545Z,25.15
2022-11-20T11:41:36.582Z,22.67
2022-11-20T11:44:46.433Z,21.98
2022-11-20T11:47:34.473Z,16.40
2022-11-20T11:50:17.210Z,22.48
2022-11-20T11:53:15.432Z,25.05
2022-11-20T11:55:50.740Z,19.92
2022-11-20T11:58:39.015Z,20.00
2022-11-20T12:01:39.776Z,18.85
2022-11-20T12:04:17.650Z,18.85
2022-11-20T12:06:48.250Z,19.42
2022-11-20T12:09:14.840Z,21.25
2022-11-20T12:11:46.224Z,15.63
2022-11-20T12:14:24.786Z,24.85
2022-11-20T12:16:53.695Z,20.67
2022-11-20T12:19:20.184Z,18.02
2022-11-20T12:22:25.566Z,17.27
2022-11-20T12:24:59.818Z,22.90
2022-11-20T12:27:51.130Z,19.40
2022-11-20T12:33:13.733Z,26.05
2022-11-20T12:35:56.657Z,24.15
2022-11-20T12:38:47.690Z,20.95
2022-11-20T12:41:56.638Z,22.98
2022-11-20T12:45:07.606Z,22.85
2022-11-20T12:47:48.990Z,26.23
2022-11-20T12:50:42.839Z,23.08
2022-11-20T12:53:33.090Z,27.17
2022-11-20T12:56:35.637Z,28.10
2022-11-20T12:59:32.458Z,22.75
2022-11-20T13:02:24.108Z,24.80
2022-11-20T13:05:27.281Z,22.00
2022-11-20T13:07:54.476Z,29.58
2022-11-20T13:10:51.734Z,22.73
2022-11-20T13:13:29.663Z,23.40
2022-11-20T13:16:07.922Z,21.75
2022-11-20T13:18:40.542Z,25.17
2022-11-20T13:21:43.489Z,23.40
2022-11-20T13:24:27.217Z,23.27
2022-11-20T13:27:08.614Z,21.52
2022-11-20T13:29:37.483Z,22.58
2022-11-20T13:32:08.116Z,19.08
2022-11-20T13:34:35.855Z,20.60
2022-11-20T13:37:04.617Z,19.13
2022-11-20T13:39:33.850Z,19.02
2022-11-20T13:42:27.661Z,21.85
2022-11-20T13:45:03.422Z,19.55
2022-11-20T13:47:30.431Z,20.30
2022-11-20T13:50:00.162Z,19.20
2022-11-20T13:52:44.856Z,19.35
2022-11-20T13:55:41.512Z,21.63
2022-11-20T13:58:36.918Z,20.92
2022-11-20T14:01:16.067Z,20.85
2022-11-20T14:06:32.466Z,18.75
2022-11-20T14:09:00.229Z,26.42
2022-11-20T14:11:28.765Z,18.27
2022-11-20T14:14:14.477Z,18.00
2022-11-20T14:16:40.870Z,22.73
2022-11-20T14:19:22.293Z,19.52
2022-11-20T14:21:53.619Z,22.05
2022-11-20T14:24:22.427Z,23.17
2022-11-20T14:26:50.969Z,22.25
2022-11-20T14:29:19.886Z,25.85
2022-11-20T14:31:53.716Z,23.42
2022-11-20T14:34:26.200Z,23.63
2022-11-20T14:36:58.031Z,22.13
2022-11-20T14:39:31.671Z,23.75
2022-11-20T14:41:58.049Z,25.10
2022-11-20T14:44:28.653Z,20.90
2022-11-20T14:46:56.705Z,15.75
2022-11-20T14:49:23.425Z,25.17
2022-11-20T14:52:03.389Z,25.95
2022-11-20T14:54:31.540Z,22.20
2022-11-20T14:57:04.310Z,24.23
2022-11-20T14:59:33.320Z,27.45
2022-11-20T15:02:11.304Z,27.05
2022-11-20T15:04:48.499Z,28.90
2022-11-20T15:07:26.175Z,23.98
2022-11-20T15:10:06.702Z,21.75
2022-11-20T15:12:36.146Z,25.17
2022-11-20T15:15:04.284Z,28.38
2022-11-20T15:17:32.474Z,27.35
2022-11-20T15:20:00.764Z,26.25
2022-11-20T15:22:27.158Z,27.85
2022-11-20T15:24:53.557Z,23.33
2022-11-20T15:27:19.983Z,26.77
2022-11-20T15:29:46.364Z,24.73
2022-11-20T15:32:13.786Z,22.77
2022-11-20T15:34:40.364Z,22.42
2022-11-20T15:37:06.736Z,26.30
2022-11-20T15:39:33.144Z,25.88
2022-11-20T15:41:59.529Z,20.10
2022-11-20T15:44:26.069Z,22.67
2022-11-20T15:46:52.558Z,19.20
2022-11-20T15:49:23.696Z,26.23
2022-11-20T15:54:22.640Z,21.30
2022-11-20T15:56:53.114Z,28.63
2022-11-20T15:59:19.839Z,24.88
2022-11-20T16:01:46.354Z,21.17
2022-11-20T16:04:14.864Z,25.35
2022-11-20T16:06:41.374Z,22.45
2022-11-20T16:09:08.118Z,23.58
2022-11-20T16:11:37.418Z,22.45
2022-11-20T16:14:23.481Z,26.38
2022-11-20T16:16:50.088Z,23.70
2022-11-20T16:19:16.615Z,28.92
2022-11-20T16:21:43.150Z,26.25
2022-11-20T16:24:13.632Z,22.02
2022-11-20T16:26:40.835Z,23.77
2022-11-20T16:29:07.918Z,21.02
2022-11-20T16:31:34.637Z,24.10
2022-11-20T16:34:08.459Z,51.38
2022-11-20T16:36:40.939Z,23.70
2022-11-20T16:39:07.466Z,19.95
2022-11-20T16:41:34.973Z,19.33
2022-11-20T16:44:06.773Z,24.85
2022-11-20T16:46:33.472Z,23.88
2022-11-20T16:49:05.876Z,20.30
2022-11-20T16:51:35.468Z,22.33
2022-11-20T16:54:02.952Z,22.92
2022-11-20T16:56:29.338Z,18.50
2022-11-20T16:58:57.770Z,22.55
2022-11-20T17:01:25.451Z,23.88
2022-11-20T17:03:57.764Z,26.77
2022-11-20T17:06:27.259Z,22.75
2022-11-20T17:08:55.345Z,24.98
2022-11-20T17:11:22.689Z,18.55
2022-11-20T17:13:49.358Z,20.10
2022-11-20T17:16:18.291Z,24.17
2022-11-20T17:18:45.312Z,25.70
2022-11-20T17:21:13.022Z,24.70
2022-11-20T17:23:42.130Z,24.17
2022-11-20T17:26:11.344Z,26.73
2022-11-20T17:28:38.915Z,26.90
2022-11-20T17:31:08.443Z,24.60
2022-11-20T17:33:36.754Z,25.98
2022-11-20T17:36:04.246Z,28.60
2022-11-20T17:38:30.749Z,23.52
2022-11-20T17:41:09.118Z,26.60
2022-11-20T17:43:38.425Z,21.00
2022-11-20T17:46:10.883Z,25.52
2022-11-20T17:48:38.031Z,26.00
2022-11-20T17:51:06.239Z,26.50
2022-11-20T17:53:34.520Z,28.50
2022-11-20T17:56:19.365Z,25.83
2022-11-20T17:58:45.857Z,21.15
2022-11-20T18:01:12.542Z,27.13
2022-11-20T18:03:39.047Z,24.30
2022-11-20T18:06:10.677Z,25.15
2022-11-20T18:08:37.540Z,27.40
2022-11-20T18:11:14.996Z,22.58
2022-11-20T18:14:01.783Z,26.67
2022-11-20T18:16:30.798Z,26.63
2022-11-20T18:18:58.229Z,27.33
2022-11-20T18:21:26.959Z,25.90
2022-11-20T18:23:55.211Z,25.55
2022-11-20T18:26:22.281Z,24.40
2022-11-20T18:28:48.682Z,26.92
2022-11-20T18:31:15.422Z,27.63
2022-11-20T18:33:41.904Z,29.35
2022-11-20T18:36:10.792Z,26.02
2022-11-20T18:38:40.639Z,29.38
2022-11-20T18:41:08.196Z,26.42
2022-11-20T18:43:53.468Z,28.60
2022-11-20T18:46:21.892Z,26.90
2022-11-20T18:48:48.312Z,23.60
2022-11-20T18:51:16.210Z,72.55
2022-11-20T18:53:47.207Z,56.83
2022-11-20T18:56:14.006Z,171.25
2022-11-20T18:58:41.307Z,114.75
2022-11-20T19:01:08.468Z,82.40
2022-11-20T19:03:34.938Z,42.13
2022-11-20T19:06:01.335Z,29.63
2022-11-20T19:08:27.906Z,25.42
2022-11-20T19:10:54.355Z,22.58
2022-11-20T19:13:20.792Z,24.33
2022-11-20T19:15:47.609Z,25.13
2022-11-20T19:18:14.043Z,27.23
2022-11-20T19:20:40.429Z,25.10
2022-11-20T19:23:06.803Z,24.63
2022-11-20T19:25:37.921Z,25.55
2022-11-20T19:28:04.975Z,25.38
2022-11-20T19:30:31.393Z,23.73
2022-11-20T19:32:58.057Z,24.20
2022-11-20T19:35:24.918Z,25.35
2022-11-20T19:37:51.751Z,25.58
2022-11-20T19:40:18.146Z,25.13
2022-11-20T19:42:44.534Z,30.08
2022-11-20T19:45:10.939Z,30.05
2022-11-20T19:48:07.164Z,37.70
2022-11-20T19:50:23.866Z,26.63
2022-11-20T19:52:53.156Z,26.45
2022-11-20T19:55:23.794Z,34.60
2022-11-20T19:57:50.212Z,27.02
2022-11-20T20:00:23.109Z,25.33
2022-11-20T20:02:54.681Z,25.45
2022-11-20T20:05:21.111Z,24.63
2022-11-20T20:07:47.880Z,31.42
2022-11-20T20:10:14.616Z,29.90
2022-11-20T20:12:41.024Z,24.50
2022-11-20T20:15:07.823Z,24.10
2022-11-20T20:17:34.238Z,24.02
2022-11-20T20:20:00.634Z,24.90
2022-11-20T20:22:27.017Z,24.98
2022-11-20T20:24:53.394Z,21.15
2022-11-20T20:27:19.838Z,21.55
2022-11-20T20:29:46.230Z,26.15
2022-11-20T20:32:12.636Z,23.60
2022-11-20T20:34:39.072Z,24.48
2022-11-20T20:37:05.466Z,21.98
2022-11-20T20:39:31.997Z,23.00
2022-11-20T20:41:58.370Z,21.65
2022-11-20T20:44:43.426Z,30.00
2022-11-20T20:47:09.816Z,23.15
2022-11-20T20:49:36.532Z,25.77
2022-11-20T20:52:02.934Z,28.35
2022-11-20T20:54:33.125Z,23.80
2022-11-20T20:57:00.805Z,21.52
2022-11-20T20:59:27.183Z,23.77
2022-11-20T21:01:53.564Z,24.75
2022-11-20T21:04:19.990Z,26.73
2022-11-20T21:06:46.372Z,24.52
2022-11-20T21:09:12.749Z,21.17
2022-11-20T21:11:39.709Z,22.70
2022-11-20T21:14:06.204Z,20.27
2022-11-20T21:16:40.892Z,27.17
2022-11-20T21:19:07.882Z,22.10
2022-11-20T21:21:52.944Z,28.95
2022-11-20T21:24:19.512Z,21.80
2022-11-20T21:26:46.005Z,23.63
2022-11-20T21:29:12.600Z,27.88
2022-11-20T21:31:38.983Z,23.50
2022-11-20T21:34:05.366Z,27.10
2022-11-20T21:36:32.004Z,25.73
2022-11-20T21:39:02.462Z,23.05
2022-11-20T21:41:30.412Z,25.00
2022-11-20T21:44:29.709Z,27.15
2022-11-20T21:46:46.347Z,27.23
2022-11-20T21:49:14.437Z,22.75
2022-11-20T21:51:40.815Z,26.27
2022-11-20T21:54:07.524Z,23.63
2022-11-20T21:56:33.930Z,25.13
2022-11-20T21:59:00.512Z,21.98
2022-11-20T22:01:29.446Z,24.88
2022-11-20T22:03:59.164Z,26.30
2022-11-20T22:06:29.363Z,27.95
2022-11-20T22:08:55.775Z,27.43
2022-11-20T22:11:22.280Z,26.45
2022-11-20T22:14:07.974Z,22.45
2022-11-20T22:16:36.212Z,23.58
2022-11-20T22:19:02.921Z,22.15
2022-11-20T22:21:30.422Z,22.70
2022-11-20T22:23:58.317Z,22.75
2022-11-20T22:26:27.394Z,26.08
2022-11-20T22:28:56.128Z,21.27
2022-11-20T22:31:24.799Z,25.00
2022-11-20T22:33:51.659Z,22.80
2022-11-20T22:36:28.811Z,28.70
2022-11-20T22:38:55.746Z,23.73
2022-11-20T22:41:28.775Z,24.95
2022-11-20T22:43:57.325Z,27.95
2022-11-20T22:46:25.049Z,27.15
2022-11-20T22:48:59.236Z,26.85
2022-11-20T22:51:37.225Z,26.35
2022-11-20T22:54:04.062Z,27.38
2022-11-20T22:56:31.319Z,24.38
2022-11-20T22:58:57.936Z,25.55
2022-11-20T23:01:26.855Z,26.65
2022-11-20T23:03:57.226Z,26.13
2022-11-20T23:06:24.264Z,24.13
2022-11-20T23:08:51.103Z,22.88
2022-11-20T23:11:28.945Z,23.73
2022-11-20T23:13:58.159Z,19.65
2022-11-20T23:16:26.139Z,24.38
2022-11-20T23:19:01.049Z,21.85
2022-11-20T23:21:27.808Z,24.15
2022-11-20T23:23:56.064Z,26.60
2022-11-20T23:26:24.812Z,24.65
2022-11-20T23:28:53.849Z,24.75
2022-11-20T23:31:20.832Z,23.58
2022-11-20T23:33:47.319Z,28.73
2022-11-20T23:36:14.494Z,24.52
2022-11-20T23:38:41.219Z,26.88
2022-11-20T23:41:08.281Z,25.75
2022-11-20T23:43:35.106Z,30.13
2022-11-20T23:46:02.441Z,33.60
2022-11-20T23:48:31.152Z,32.72
2022-11-20T23:50:57.932Z,33.13
2022-11-20T23:53:25.575Z,39.38
2022-11-20T23:56:00.660Z,36.20
2022-11-20T23:58:32.309Z,41.63
